createdAt,value
2017-01-05T00:00:47.749Z,1012.66
2017-01-05T00:01:53.070Z,1012.72
2017-01-05T00:02:58.698Z,1012.74
2017-01-05T00:04:03.866Z,1012.74
2017-01-05T00:05:08.093Z,1012.73
2017-01-05T00:06:14.261Z,1012.78
2017-01-05T00:07:18.462Z,1012.83
2017-01-05T00:08:24.640Z,1012.82
2017-01-05T00:09:30.819Z,1012.78
2017-01-05T00:10:35.976Z,1012.86
2017-01-05T00:11:42.135Z,1012.88
2017-01-05T00:12:48.316Z,1012.9
2017-01-05T00:13:54.466Z,1012.88
2017-01-05T00:15:00.671Z,1012.9
2017-01-05T00:16:06.792Z,1012.81
2017-01-05T00:17:11.989Z,1012.81
2017-01-05T00:18:18.177Z,1012.79
2017-01-05T00:19:23.374Z,1012.79
2017-01-05T00:20:27.603Z,1012.81
2017-01-05T00:21:32.797Z,1012.86
2017-01-05T00:22:37.957Z,1012.86
2017-01-05T00:23:42.188Z,1012.91
2017-01-05T00:24:48.372Z,1012.95
2017-01-05T00:25:54.534Z,1012.95
2017-01-05T00:26:58.739Z,1012.95
2017-01-05T00:28:03.932Z,1012.97
2017-01-05T00:29:09.099Z,1013.03
2017-01-05T00:30:15.267Z,1012.99
2017-01-05T00:31:21.427Z,1013
2017-01-05T00:32:26.627Z,1013.07
2017-01-05T00:33:32.782Z,1013.06
2017-01-05T00:34:37.008Z,1013.08
2017-01-05T00:35:42.253Z,1013.05
2017-01-05T00:36:46.477Z,1013.09
2017-01-05T00:37:51.678Z,1013.12
2017-01-05T00:38:57.840Z,1013.15
2017-01-05T00:40:03.041Z,1013.16
2017-01-05T00:41:07.334Z,1013.16
2017-01-05T00:42:11.568Z,1013.21
2017-01-05T00:43:17.742Z,1013.2
2017-01-05T00:44:22.921Z,1013.19
2017-01-05T00:45:27.151Z,1013.22
2017-01-05T00:46:33.308Z,1013.24
2017-01-05T00:47:39.541Z,1013.23
2017-01-05T00:48:45.697Z,1013.25
2017-01-05T00:49:51.902Z,1013.22
2017-01-05T00:50:58.063Z,1013.24
2017-01-05T00:52:03.265Z,1013.26
2017-01-05T00:53:07.460Z,1013.3
2017-01-05T00:54:12.703Z,1013.33
2017-01-05T00:55:16.927Z,1013.32
2017-01-05T00:56:22.168Z,1013.32
2017-01-05T00:57:27.312Z,1013.32
2017-01-05T00:58:33.484Z,1013.35
2017-01-05T00:59:38.653Z,1013.38
2017-01-05T01:00:43.850Z,1013.4
2017-01-05T01:01:48.172Z,1013.39
2017-01-05T01:02:54.333Z,1013.41
2017-01-05T01:04:00.493Z,1013.43
2017-01-05T01:05:05.665Z,1013.43
2017-01-05T01:06:11.838Z,1013.48
2017-01-05T01:07:17.042Z,1013.49
2017-01-05T01:08:23.199Z,1013.53
2017-01-05T01:09:29.371Z,1013.57
2017-01-05T01:10:34.570Z,1013.61
2017-01-05T01:11:40.774Z,1013.64
2017-01-05T01:12:45.943Z,1013.65
2017-01-05T01:13:51.137Z,1013.73
2017-01-05T01:14:57.302Z,1013.72
2017-01-05T01:16:02.505Z,1013.72
2017-01-05T01:17:08.667Z,1013.76
2017-01-05T01:18:14.826Z,1013.78
2017-01-05T01:19:33.927Z,1013.84
2017-01-05T01:20:40.097Z,1013.81
2017-01-05T01:21:44.327Z,1013.81
2017-01-05T01:22:49.531Z,1013.81
2017-01-05T01:23:54.712Z,1013.82
2017-01-05T01:25:00.930Z,1013.83
2017-01-05T01:26:06.122Z,1013.87
2017-01-05T01:27:11.322Z,1013.89
2017-01-05T01:28:15.528Z,1013.94
2017-01-05T01:29:21.717Z,1013.93
2017-01-05T01:30:25.937Z,1013.96
2017-01-05T01:31:30.199Z,1013.95
2017-01-05T01:32:34.427Z,1013.9
2017-01-05T01:33:40.588Z,1013.95
2017-01-05T01:34:46.794Z,1014.04
2017-01-05T01:35:51.937Z,1014.09
2017-01-05T01:36:56.136Z,1014.15
2017-01-05T01:38:02.312Z,1014.2
2017-01-05T01:39:08.465Z,1014.26
2017-01-05T01:40:12.695Z,1014.3
2017-01-05T01:41:18.869Z,1014.31
2017-01-05T01:42:22.099Z,1014.37
2017-01-05T01:43:28.258Z,1014.43
2017-01-05T01:44:34.630Z,1014.46
2017-01-05T01:45:40.911Z,1014.52
2017-01-05T01:46:47.068Z,1014.54
2017-01-05T01:47:52.265Z,1014.6
2017-01-05T01:48:53.565Z,1014.61
2017-01-05T01:49:58.738Z,1014.63
2017-01-05T01:51:04.910Z,1014.62
2017-01-05T01:52:11.173Z,1014.63
2017-01-05T01:53:17.354Z,1014.65
2017-01-05T01:54:22.572Z,1014.63
2017-01-05T01:55:27.812Z,1014.65
2017-01-05T01:56:33.932Z,1014.74
2017-01-05T01:57:40.090Z,1014.73
2017-01-05T01:58:45.285Z,1014.69
2017-01-05T01:59:51.503Z,1014.6
2017-01-05T02:00:57.679Z,1014.61
2017-01-05T02:02:02.864Z,1014.61
2017-01-05T02:03:08.056Z,1014.55
2017-01-05T02:04:13.457Z,1014.57
2017-01-05T02:05:19.619Z,1014.59
2017-01-05T02:06:25.781Z,1014.55
2017-01-05T02:07:31.951Z,1014.61
2017-01-05T02:08:37.154Z,1014.65
2017-01-05T02:09:40.437Z,1014.67
2017-01-05T02:10:45.639Z,1014.66
2017-01-05T02:11:51.045Z,1014.7
2017-01-05T02:12:57.208Z,1014.69
2017-01-05T02:14:02.405Z,1014.71
2017-01-05T02:15:07.865Z,1014.66
2017-01-05T02:16:14.053Z,1014.7
2017-01-05T02:17:19.262Z,1014.71
2017-01-05T02:18:25.424Z,1014.7
2017-01-05T02:19:29.744Z,1014.7
2017-01-05T02:20:33.948Z,1014.73
2017-01-05T02:21:38.169Z,1014.78
2017-01-05T02:22:41.426Z,1014.83
2017-01-05T02:23:47.598Z,1014.84
2017-01-05T02:24:50.536Z,1014.89
2017-01-05T02:25:55.724Z,1014.9
2017-01-05T02:27:00.928Z,1014.93
2017-01-05T02:28:07.094Z,1014.92
2017-01-05T02:29:12.322Z,1014.99
2017-01-05T02:30:18.445Z,1014.98
2017-01-05T02:31:24.616Z,1015.02
2017-01-05T02:32:30.788Z,1014.97
2017-01-05T02:33:35.950Z,1015.02
2017-01-05T02:34:42.110Z,1015.01
2017-01-05T02:35:47.314Z,1015.04
2017-01-05T02:36:53.477Z,1015.1
2017-01-05T02:37:59.637Z,1015.13
2017-01-05T02:39:05.808Z,1015.17
2017-01-05T02:40:11.009Z,1015.22
2017-01-05T02:41:17.155Z,1015.18
2017-01-05T02:42:22.361Z,1015.24
2017-01-05T02:43:28.515Z,1015.32
2017-01-05T02:44:33.794Z,1015.31
2017-01-05T02:45:39.961Z,1015.32
2017-01-05T02:46:45.235Z,1015.34
2017-01-05T02:47:51.477Z,1015.34
2017-01-05T02:48:54.739Z,1015.33
2017-01-05T02:50:00.904Z,1015.36
2017-01-05T02:51:06.068Z,1015.33
2017-01-05T02:52:09.395Z,1015.32
2017-01-05T02:53:14.576Z,1015.36
2017-01-05T02:54:20.753Z,1015.4
2017-01-05T02:55:26.924Z,1015.38
2017-01-05T02:56:33.082Z,1015.42
2017-01-05T02:57:38.281Z,1015.39
2017-01-05T02:58:44.504Z,1015.37
2017-01-05T02:59:50.659Z,1015.37
2017-01-05T03:00:56.897Z,1015.37
2017-01-05T03:02:02.089Z,1015.37
2017-01-05T03:03:06.369Z,1015.38
2017-01-05T03:04:11.526Z,1015.38
2017-01-05T03:05:16.719Z,1015.48
2017-01-05T03:06:23.082Z,1015.46
2017-01-05T03:07:28.344Z,1015.46
2017-01-05T03:08:32.563Z,1015.51
2017-01-05T03:09:38.729Z,1015.54
2017-01-05T03:10:44.901Z,1015.55
2017-01-05T03:11:51.060Z,1015.6
2017-01-05T03:12:56.287Z,1015.59
2017-01-05T03:14:01.489Z,1015.61
2017-01-05T03:15:05.701Z,1015.65
2017-01-05T03:16:11.865Z,1015.6
2017-01-05T03:17:17.057Z,1015.63
2017-01-05T03:18:23.438Z,1015.68
2017-01-05T03:19:28.627Z,1015.69
2017-01-05T03:20:33.815Z,1015.69
2017-01-05T03:21:39.015Z,1015.71
2017-01-05T03:22:45.470Z,1015.75
2017-01-05T03:23:49.672Z,1015.78
2017-01-05T03:24:54.838Z,1015.78
2017-01-05T03:26:00.102Z,1015.83
2017-01-05T03:27:05.217Z,1015.86
2017-01-05T03:28:10.429Z,1015.91
2017-01-05T03:29:15.637Z,1015.91
2017-01-05T03:30:20.845Z,1015.98
2017-01-05T03:31:27.005Z,1015.97
2017-01-05T03:32:33.171Z,1015.99
2017-01-05T03:33:37.397Z,1016.04
2017-01-05T03:34:41.630Z,1016.04
2017-01-05T03:35:46.809Z,1016.04
2017-01-05T03:36:52.979Z,1016.04
2017-01-05T03:37:57.456Z,1016.03
2017-01-05T03:39:03.620Z,1016.06
2017-01-05T03:40:07.951Z,1016.09
2017-01-05T03:41:12.049Z,1016.14
2017-01-05T03:42:18.415Z,1016.15
2017-01-05T03:43:24.592Z,1016.17
2017-01-05T03:44:30.756Z,1016.17
2017-01-05T03:45:35.924Z,1016.28
2017-01-05T03:46:40.161Z,1016.25
2017-01-05T03:47:46.323Z,1016.28
2017-01-05T03:48:51.508Z,1016.29
2017-01-05T03:49:56.704Z,1016.31
2017-01-05T03:51:01.909Z,1016.36
2017-01-05T03:52:06.107Z,1016.34
2017-01-05T03:53:09.351Z,1016.32
2017-01-05T03:54:13.577Z,1016.36
2017-01-05T03:55:18.775Z,1016.35
2017-01-05T03:56:24.935Z,1016.41
2017-01-05T03:57:29.239Z,1016.42
2017-01-05T03:58:33.465Z,1016.44
2017-01-05T03:59:37.745Z,1016.39
2017-01-05T04:00:42.907Z,1016.41
2017-01-05T04:01:49.074Z,1016.44
2017-01-05T04:02:53.302Z,1016.45
2017-01-05T04:03:59.481Z,1016.44
2017-01-05T04:05:05.627Z,1016.43
2017-01-05T04:06:11.840Z,1016.44
2017-01-05T04:07:17.031Z,1016.4
2017-01-05T04:08:23.210Z,1016.44
2017-01-05T04:09:28.628Z,1016.43
2017-01-05T04:10:33.898Z,1016.47
2017-01-05T04:11:39.423Z,1016.48
2017-01-05T04:12:43.686Z,1016.47
2017-01-05T04:13:48.882Z,1016.51
2017-01-05T04:14:54.145Z,1016.58
2017-01-05T04:15:58.325Z,1016.55
2017-01-05T04:17:03.523Z,1016.58
2017-01-05T04:18:09.682Z,1016.58
2017-01-05T04:19:14.852Z,1016.57
2017-01-05T04:20:20.013Z,1016.6
2017-01-05T04:21:25.208Z,1016.6
2017-01-05T04:22:30.445Z,1016.61
2017-01-05T04:23:35.605Z,1016.67
2017-01-05T04:25:47.936Z,1016.61
2017-01-05T04:26:53.181Z,1016.64
2017-01-05T04:27:58.441Z,1016.64
2017-01-05T04:29:02.665Z,1016.64
2017-01-05T04:30:07.879Z,1016.69
2017-01-05T04:31:13.043Z,1016.69
2017-01-05T04:32:18.249Z,1016.7
2017-01-05T04:33:22.449Z,1016.69
2017-01-05T04:34:28.599Z,1016.72
2017-01-05T04:35:34.761Z,1016.71
2017-01-05T04:36:38.969Z,1016.71
2017-01-05T04:37:44.163Z,1016.74
2017-01-05T04:38:50.324Z,1016.76
2017-01-05T04:39:54.760Z,1016.83
2017-01-05T04:40:59.013Z,1016.83
2017-01-05T04:42:04.199Z,1016.81
2017-01-05T04:43:10.438Z,1016.88
2017-01-05T04:44:14.661Z,1016.91
2017-01-05T04:45:17.895Z,1016.94
2017-01-05T04:46:23.077Z,1016.92
2017-01-05T04:47:28.935Z,1016.93
2017-01-05T04:48:35.098Z,1016.89
2017-01-05T04:49:40.345Z,1016.98
2017-01-05T04:50:44.545Z,1017
2017-01-05T04:51:49.772Z,1017
2017-01-05T04:52:54.964Z,1016.97
2017-01-05T04:53:58.213Z,1017.06
2017-01-05T04:55:03.401Z,1017.02
2017-01-05T04:56:08.788Z,1017.02
2017-01-05T04:57:13.986Z,1017.1
2017-01-05T04:58:20.160Z,1017.14
2017-01-05T04:59:25.445Z,1017.13
2017-01-05T05:00:29.635Z,1017.14
2017-01-05T05:01:34.799Z,1017.16
2017-01-05T05:02:39.994Z,1017.21
2017-01-05T05:03:46.168Z,1017.2
2017-01-05T05:04:50.404Z,1017.24
2017-01-05T05:05:53.666Z,1017.31
2017-01-05T05:06:59.845Z,1017.35
2017-01-05T05:08:04.065Z,1017.33
2017-01-05T05:09:09.259Z,1017.37
2017-01-05T05:10:15.454Z,1017.34
2017-01-05T05:11:21.788Z,1017.39
2017-01-05T05:12:26.988Z,1017.38
2017-01-05T05:13:32.267Z,1017.42
2017-01-05T05:14:38.459Z,1017.43
2017-01-05T05:15:42.716Z,1017.49
2017-01-05T05:16:48.900Z,1017.47
2017-01-05T05:17:55.140Z,1017.49
2017-01-05T05:19:01.297Z,1017.52
2017-01-05T05:20:07.516Z,1017.58
2017-01-05T05:21:10.746Z,1017.56
2017-01-05T05:22:16.910Z,1017.59
2017-01-05T05:23:23.070Z,1017.62
2017-01-05T05:24:29.383Z,1017.6
2017-01-05T05:25:33.789Z,1017.59
2017-01-05T05:26:38.072Z,1017.63
2017-01-05T05:27:44.236Z,1017.63
2017-01-05T05:28:48.798Z,1017.66
2017-01-05T05:29:54.956Z,1017.69
2017-01-05T05:31:01.119Z,1017.66
2017-01-05T05:32:06.352Z,1017.73
2017-01-05T05:33:12.482Z,1017.73
2017-01-05T05:34:18.647Z,1017.77
2017-01-05T05:35:23.869Z,1017.82
2017-01-05T05:36:30.047Z,1017.86
2017-01-05T05:37:35.217Z,1017.85
2017-01-05T05:38:41.392Z,1017.88
2017-01-05T05:39:46.581Z,1017.86
2017-01-05T05:40:50.843Z,1017.88
2017-01-05T05:41:55.979Z,1017.92
2017-01-05T05:43:01.250Z,1017.93
2017-01-05T05:44:06.530Z,1017.95
2017-01-05T05:45:12.688Z,1017.94
2017-01-05T05:46:16.913Z,1017.99
2017-01-05T05:47:21.138Z,1017.96
2017-01-05T05:48:26.360Z,1017.93
2017-01-05T05:49:32.520Z,1017.97
2017-01-05T05:50:37.723Z,1018.02
2017-01-05T05:51:42.907Z,1018.01
2017-01-05T05:52:49.075Z,1018.01
2017-01-05T05:53:55.239Z,1018.05
2017-01-05T05:55:01.407Z,1018.06
2017-01-05T05:56:06.594Z,1018.04
2017-01-05T05:57:10.823Z,1018.02
2017-01-05T05:58:15.042Z,1018.08
2017-01-05T05:59:21.204Z,1018.03
2017-01-05T06:00:26.401Z,1018.02
2017-01-05T06:01:31.600Z,1018.02
2017-01-05T06:02:35.793Z,1018.02
2017-01-05T06:03:42.006Z,1017.98
2017-01-05T06:04:48.178Z,1018.04
2017-01-05T06:05:53.369Z,1018.03
2017-01-05T06:06:56.618Z,1018.07
2017-01-05T06:08:02.775Z,1018.02
2017-01-05T06:09:06.006Z,1018.06
2017-01-05T06:10:11.202Z,1018.06
2017-01-05T06:11:17.355Z,1018.11
2017-01-05T06:12:22.554Z,1018.16
2017-01-05T06:13:28.733Z,1018.15
2017-01-05T06:14:34.910Z,1018.21
2017-01-05T06:15:40.086Z,1018.25
2017-01-05T06:16:45.274Z,1018.26
2017-01-05T06:17:51.446Z,1018.34
2017-01-05T06:18:56.634Z,1018.33
2017-01-05T06:20:00.831Z,1018.35
2017-01-05T06:21:06.989Z,1018.35
2017-01-05T06:22:13.149Z,1018.4
2017-01-05T06:23:18.318Z,1018.42
2017-01-05T06:24:24.493Z,1018.5
2017-01-05T06:25:30.652Z,1018.47
2017-01-05T06:26:36.832Z,1018.48
2017-01-05T06:27:41.055Z,1018.49
2017-01-05T06:28:47.217Z,1018.53
2017-01-05T06:29:52.410Z,1018.55
2017-01-05T06:30:56.731Z,1018.6
2017-01-05T06:31:59.955Z,1018.63
2017-01-05T06:33:06.117Z,1018.67
2017-01-05T06:34:12.303Z,1018.67
2017-01-05T06:35:18.466Z,1018.71
2017-01-05T06:36:23.632Z,1018.68
2017-01-05T06:37:29.795Z,1018.71
2017-01-05T06:38:35.966Z,1018.71
2017-01-05T06:39:42.133Z,1018.72
2017-01-05T06:40:48.311Z,1018.77
2017-01-05T06:41:53.492Z,1018.8
2017-01-05T06:42:58.697Z,1018.83
2017-01-05T06:44:04.847Z,1018.85
2017-01-05T06:45:07.483Z,1018.86
2017-01-05T06:46:13.637Z,1018.86
2017-01-05T06:47:18.901Z,1018.8
2017-01-05T06:48:23.117Z,1018.8
2017-01-05T06:49:28.459Z,1018.83
2017-01-05T06:50:33.685Z,1018.82
2017-01-05T06:51:39.797Z,1018.84
2017-01-05T06:52:44.022Z,1018.88
2017-01-05T06:53:50.186Z,1018.94
2017-01-05T06:54:56.352Z,1018.95
2017-01-05T06:56:02.525Z,1019.01
2017-01-05T06:57:05.753Z,1019.02
2017-01-05T06:58:11.913Z,1019.05
2017-01-05T06:59:17.119Z,1019.09
2017-01-05T07:00:23.283Z,1019.18
2017-01-05T07:01:29.445Z,1019.15
2017-01-05T07:02:33.732Z,1019.27
2017-01-05T07:03:37.496Z,1019.26
2017-01-05T07:04:43.664Z,1019.3
2017-01-05T07:05:47.945Z,1019.32
2017-01-05T07:06:54.073Z,1019.37
2017-01-05T07:08:00.233Z,1019.41
2017-01-05T07:09:05.529Z,1019.4
2017-01-05T07:10:08.764Z,1019.42
2017-01-05T07:11:14.934Z,1019.47
2017-01-05T07:12:20.106Z,1019.51
2017-01-05T07:13:26.268Z,1019.52
2017-01-05T07:14:32.426Z,1019.58
2017-01-05T07:15:35.696Z,1019.63
2017-01-05T07:16:40.889Z,1019.63
2017-01-05T07:17:47.052Z,1019.66
2017-01-05T07:18:53.218Z,1019.69
2017-01-05T07:19:59.380Z,1019.68
2017-01-05T07:21:05.586Z,1019.67
2017-01-05T07:22:10.779Z,1019.71
2017-01-05T07:23:15.241Z,1019.69
2017-01-05T07:24:20.432Z,1019.69
2017-01-05T07:25:24.651Z,1019.74
2017-01-05T07:26:30.849Z,1019.73
2017-01-05T07:27:36.978Z,1019.77
2017-01-05T07:28:41.168Z,1019.79
2017-01-05T07:29:45.475Z,1019.79
2017-01-05T07:30:50.677Z,1019.81
2017-01-05T07:31:55.867Z,1019.86
2017-01-05T07:33:01.040Z,1019.89
2017-01-05T07:34:06.234Z,1019.9
2017-01-05T07:35:12.392Z,1019.91
2017-01-05T07:36:18.805Z,1019.93
2017-01-05T07:37:24.932Z,1019.95
2017-01-05T07:38:31.094Z,1019.95
2017-01-05T07:39:37.250Z,1019.98
2017-01-05T07:40:41.458Z,1020.01
2017-01-05T07:41:47.616Z,1020.02
2017-01-05T07:42:52.814Z,1020.02
2017-01-05T07:43:58.014Z,1020.07
2017-01-05T07:45:04.176Z,1020.04
2017-01-05T07:46:07.405Z,1020.07
2017-01-05T07:47:12.617Z,1020.12
2017-01-05T07:48:15.909Z,1020.14
2017-01-05T07:49:21.154Z,1020.19
2017-01-05T07:50:26.389Z,1020.23
2017-01-05T07:51:32.563Z,1020.23
2017-01-05T07:52:38.717Z,1020.28
2017-01-05T07:53:43.955Z,1020.26
2017-01-05T07:54:48.155Z,1020.3
2017-01-05T07:55:53.347Z,1020.37
2017-01-05T07:56:57.603Z,1020.38
2017-01-05T07:58:03.790Z,1020.4
2017-01-05T07:59:08.958Z,1020.48
2017-01-05T08:00:15.128Z,1020.52
2017-01-05T08:01:20.323Z,1020.51
2017-01-05T08:02:24.522Z,1020.57
2017-01-05T08:03:30.681Z,1020.6
2017-01-05T08:04:36.844Z,1020.62
2017-01-05T08:05:42.143Z,1020.67
2017-01-05T08:06:46.583Z,1020.66
2017-01-05T08:07:52.738Z,1020.65
2017-01-05T08:08:57.933Z,1020.71
2017-01-05T08:10:04.087Z,1020.73
2017-01-05T08:11:10.249Z,1020.8
2017-01-05T08:12:15.453Z,1020.83
2017-01-05T08:13:19.685Z,1020.86
2017-01-05T08:14:25.849Z,1020.84
2017-01-05T08:15:32.012Z,1020.91
2017-01-05T08:16:38.184Z,1020.94
2017-01-05T08:17:44.381Z,1020.94
2017-01-05T08:18:49.569Z,1020.95
2017-01-05T08:19:54.762Z,1020.98
2017-01-05T08:21:00.932Z,1020.98
2017-01-05T08:22:07.166Z,1021.04
2017-01-05T08:23:12.176Z,1021.05
2017-01-05T08:24:17.366Z,1021.06
2017-01-05T08:25:22.559Z,1021.06
2017-01-05T08:26:27.738Z,1021.04
2017-01-05T08:27:33.896Z,1021.07
2017-01-05T08:28:39.069Z,1021.07
2017-01-05T08:29:43.287Z,1021.1
2017-01-05T08:30:49.454Z,1021.17
2017-01-05T08:31:55.617Z,1021.13
2017-01-05T08:33:01.786Z,1021.2
2017-01-05T08:34:07.000Z,1021.22
2017-01-05T08:35:11.255Z,1021.26
2017-01-05T08:36:16.469Z,1021.24
2017-01-05T08:37:22.651Z,1021.28
2017-01-05T08:38:27.852Z,1021.28
2017-01-05T08:39:32.084Z,1021.34
2017-01-05T08:40:38.351Z,1021.35
2017-01-05T08:41:44.517Z,1021.36
2017-01-05T08:42:48.797Z,1021.41
2017-01-05T08:45:00.254Z,1021.46
2017-01-05T08:46:03.451Z,1021.48
2017-01-05T08:47:09.629Z,1021.51
2017-01-05T08:48:15.783Z,1021.53
2017-01-05T08:49:21.002Z,1021.54
2017-01-05T08:50:26.206Z,1021.59
2017-01-05T08:51:31.412Z,1021.57
2017-01-05T08:52:37.577Z,1021.62
2017-01-05T08:53:43.737Z,1021.67
2017-01-05T08:54:48.940Z,1021.7
2017-01-05T08:55:55.164Z,1021.71
2017-01-05T08:57:01.330Z,1021.74
2017-01-05T08:58:05.533Z,1021.76
2017-01-05T08:59:10.734Z,1021.79
2017-01-05T09:00:16.951Z,1021.83
2017-01-05T09:01:22.128Z,1021.85
2017-01-05T09:02:27.418Z,1021.87
2017-01-05T09:03:30.697Z,1021.9
2017-01-05T09:04:34.938Z,1021.92
2017-01-05T09:05:41.113Z,1021.95
2017-01-05T09:06:46.320Z,1022.01
2017-01-05T09:07:52.497Z,1022.05
2017-01-05T09:08:56.705Z,1022.09
2017-01-05T09:10:02.879Z,1022.12
2017-01-05T09:11:09.046Z,1022.17
2017-01-05T09:12:14.248Z,1022.23
2017-01-05T09:13:20.412Z,1022.23
2017-01-05T09:14:26.592Z,1022.28
2017-01-05T09:15:31.771Z,1022.31
2017-01-05T09:16:36.007Z,1022.38
2017-01-05T09:17:40.225Z,1022.39
2017-01-05T09:18:45.401Z,1022.42
2017-01-05T09:19:50.638Z,1022.46
2017-01-05T09:20:56.777Z,1022.51
2017-01-05T09:22:02.078Z,1022.49
2017-01-05T09:23:06.708Z,1022.52
2017-01-05T09:24:11.908Z,1022.51
2017-01-05T09:25:17.153Z,1022.55
2017-01-05T09:26:21.373Z,1022.55
2017-01-05T09:27:26.632Z,1022.58
2017-01-05T09:28:31.893Z,1022.6
2017-01-05T09:29:37.027Z,1022.62
2017-01-05T09:30:39.338Z,1022.6
2017-01-05T09:31:44.515Z,1022.61
2017-01-05T09:32:49.720Z,1022.62
2017-01-05T09:33:54.926Z,1022.68
2017-01-05T09:35:01.099Z,1022.69
2017-01-05T09:36:04.368Z,1022.72
2017-01-05T09:37:10.538Z,1022.78
2017-01-05T09:38:16.707Z,1022.81
2017-01-05T09:39:21.909Z,1022.79
2017-01-05T09:40:27.084Z,1022.84
2017-01-05T09:41:32.284Z,1022.78
2017-01-05T09:42:38.473Z,1022.85
2017-01-05T09:43:44.653Z,1022.85
2017-01-05T09:44:50.831Z,1022.86
2017-01-05T09:45:56.037Z,1022.85
2017-01-05T09:47:02.214Z,1022.87
2017-01-05T09:48:08.378Z,1022.93
2017-01-05T09:49:14.546Z,1022.91
2017-01-05T09:50:19.964Z,1022.98
2017-01-05T09:51:23.231Z,1022.91
2017-01-05T09:52:27.454Z,1022.98
2017-01-05T09:53:32.630Z,1022.99
2017-01-05T09:54:37.932Z,1023.03
2017-01-05T09:55:42.847Z,1023.06
2017-01-05T09:56:48.306Z,1023.06
2017-01-05T09:57:53.482Z,1023.12
2017-01-05T09:58:58.693Z,1023.11
2017-01-05T10:00:04.405Z,1023.1
2017-01-05T10:01:09.668Z,1023.12
2017-01-05T10:02:15.939Z,1023.12
2017-01-05T10:03:22.176Z,1023.13
2017-01-05T10:04:27.380Z,1023.16
2017-01-05T10:05:33.583Z,1023.16
2017-01-05T10:06:38.745Z,1023.17
2017-01-05T10:07:44.979Z,1023.17
2017-01-05T10:08:50.353Z,1023.2
2017-01-05T10:09:56.600Z,1023.19
2017-01-05T10:11:02.769Z,1023.22
2017-01-05T10:12:07.971Z,1023.17
2017-01-05T10:13:12.213Z,1023.2
2017-01-05T10:14:17.414Z,1023.21
2017-01-05T10:15:23.566Z,1023.22
2017-01-05T10:16:28.765Z,1023.21
2017-01-05T10:17:34.933Z,1023.25
2017-01-05T10:18:40.138Z,1023.25
2017-01-05T10:19:45.380Z,1023.26
2017-01-05T10:20:50.558Z,1023.28
2017-01-05T10:21:56.729Z,1023.31
2017-01-05T10:23:02.914Z,1023.35
2017-01-05T10:24:09.094Z,1023.32
2017-01-05T10:25:15.272Z,1023.38
2017-01-05T10:26:21.450Z,1023.4
2017-01-05T10:27:27.621Z,1023.38
2017-01-05T10:28:29.929Z,1023.4
2017-01-05T10:29:35.089Z,1023.38
2017-01-05T10:30:40.287Z,1023.47
2017-01-05T10:31:45.504Z,1023.4
2017-01-05T10:32:50.783Z,1023.42
2017-01-05T10:33:55.025Z,1023.45
2017-01-05T10:35:00.234Z,1023.44
2017-01-05T10:36:04.441Z,1023.44
2017-01-05T10:37:09.644Z,1023.35
2017-01-05T10:38:15.959Z,1023.43
2017-01-05T10:39:21.379Z,1023.45
2017-01-05T10:40:26.609Z,1023.37
2017-01-05T10:42:38.009Z,1023.43
2017-01-05T10:43:43.429Z,1023.42
2017-01-05T10:44:49.597Z,1023.42
2017-01-05T10:45:53.835Z,1023.41
2017-01-05T10:47:00.012Z,1023.47
2017-01-05T10:48:05.203Z,1023.44
2017-01-05T10:49:10.413Z,1023.48
2017-01-05T10:50:15.623Z,1023.43
2017-01-05T10:51:21.793Z,1023.45
2017-01-05T10:52:27.948Z,1023.49
2017-01-05T10:53:34.120Z,1023.46
2017-01-05T10:54:39.370Z,1023.4
2017-01-05T10:55:45.508Z,1023.53
2017-01-05T10:56:49.808Z,1023.51
2017-01-05T10:57:55.921Z,1023.55
2017-01-05T10:59:02.085Z,1023.51
2017-01-05T11:00:07.314Z,1023.51
2017-01-05T11:01:12.721Z,1023.57
2017-01-05T11:02:17.918Z,1023.56
2017-01-05T11:03:24.200Z,1023.6
2017-01-05T11:04:30.596Z,1023.6
2017-01-05T11:05:35.536Z,1023.62
2017-01-05T11:06:41.699Z,1023.57
2017-01-05T11:07:46.897Z,1023.64
2017-01-05T11:08:53.070Z,1023.61
2017-01-05T11:09:58.247Z,1023.63
2017-01-05T11:11:04.411Z,1023.64
2017-01-05T11:12:09.605Z,1023.68
2017-01-05T11:13:13.842Z,1023.63
2017-01-05T11:14:17.209Z,1023.65
2017-01-05T11:15:22.421Z,1023.59
2017-01-05T11:16:27.643Z,1023.62
2017-01-05T11:17:31.892Z,1023.65
2017-01-05T11:18:36.123Z,1023.63
2017-01-05T11:19:41.295Z,1023.72
2017-01-05T11:20:47.457Z,1023.69
2017-01-05T11:21:53.628Z,1023.71
2017-01-05T11:22:58.852Z,1023.74
2017-01-05T11:24:04.765Z,1023.76
2017-01-05T11:25:10.949Z,1023.74
2017-01-05T11:26:17.394Z,1023.77
2017-01-05T11:27:22.622Z,1023.76
2017-01-05T11:28:27.918Z,1023.79
2017-01-05T11:29:32.154Z,1023.79
2017-01-05T11:30:37.352Z,1023.85
2017-01-05T11:31:42.540Z,1023.81
2017-01-05T11:32:47.744Z,1023.87
2017-01-05T11:33:51.943Z,1023.83
2017-01-05T11:34:58.118Z,1023.99
2017-01-05T11:36:04.284Z,1023.93
2017-01-05T11:37:10.487Z,1023.84
2017-01-05T11:38:15.650Z,1023.85
2017-01-05T11:39:19.893Z,1023.85
2017-01-05T11:40:25.075Z,1023.82
2017-01-05T11:41:29.283Z,1023.86
2017-01-05T11:42:35.438Z,1023.87
2017-01-05T11:43:39.798Z,1023.9
2017-01-05T11:44:44.991Z,1023.87
2017-01-05T11:45:49.216Z,1023.88
2017-01-05T11:46:53.442Z,1023.85
2017-01-05T11:47:59.615Z,1023.86
2017-01-05T11:49:04.767Z,1023.85
2017-01-05T11:50:10.116Z,1023.87
2017-01-05T11:51:16.234Z,1023.91
2017-01-05T11:52:20.485Z,1023.98
2017-01-05T11:53:24.709Z,1023.91
2017-01-05T11:54:30.900Z,1023.92
2017-01-05T11:55:37.106Z,1023.9
2017-01-05T11:56:42.327Z,1023.93
2017-01-05T11:57:48.491Z,1023.91
2017-01-05T11:58:53.686Z,1023.88
2017-01-05T11:59:58.879Z,1023.91
2017-01-05T12:01:05.042Z,1023.9
2017-01-05T12:02:10.219Z,1023.9
2017-01-05T12:03:16.471Z,1023.89
2017-01-05T12:04:21.391Z,1023.87
2017-01-05T12:05:27.556Z,1024
2017-01-05T12:06:32.769Z,1023.95
2017-01-05T12:07:37.964Z,1023.95
2017-01-05T12:08:44.159Z,1023.95
2017-01-05T12:09:50.365Z,1024.02
2017-01-05T12:10:56.510Z,1024.06
2017-01-05T12:12:01.908Z,1024.09
2017-01-05T12:13:07.106Z,1024.1
2017-01-05T12:14:12.303Z,1024.14
2017-01-05T12:15:18.468Z,1024.15
2017-01-05T12:16:23.705Z,1024.18
2017-01-05T12:17:29.870Z,1024.19
2017-01-05T12:18:34.079Z,1024.2
2017-01-05T12:19:40.569Z,1024.22
2017-01-05T12:20:45.689Z,1024.29
2017-01-05T12:21:49.923Z,1024.26
2017-01-05T12:22:56.116Z,1024.24
2017-01-05T12:24:02.562Z,1024.3
2017-01-05T12:25:08.728Z,1024.35
2017-01-05T12:26:14.897Z,1024.35
2017-01-05T12:27:19.108Z,1024.33
2017-01-05T12:28:25.285Z,1024.33
2017-01-05T12:29:31.444Z,1024.33
2017-01-05T12:30:37.689Z,1024.36
2017-01-05T12:31:40.957Z,1024.45
2017-01-05T12:33:52.309Z,1024.45
2017-01-05T12:34:58.462Z,1024.45
2017-01-05T12:36:03.630Z,1024.47
2017-01-05T12:37:09.791Z,1024.52
2017-01-05T12:38:13.094Z,1024.56
2017-01-05T12:39:19.282Z,1024.58
2017-01-05T12:40:24.495Z,1024.6
2017-01-05T12:41:30.661Z,1024.7
2017-01-05T12:42:34.892Z,1024.63
2017-01-05T12:43:41.168Z,1024.65
2017-01-05T12:44:46.341Z,1024.64
2017-01-05T12:45:52.561Z,1024.65
2017-01-05T12:46:57.761Z,1024.7
2017-01-05T12:48:02.040Z,1024.67
2017-01-05T12:49:08.190Z,1024.69
2017-01-05T12:50:14.366Z,1024.76
2017-01-05T12:51:19.656Z,1024.73
2017-01-05T12:52:24.851Z,1024.72
2017-01-05T12:53:30.048Z,1024.71
2017-01-05T12:54:34.260Z,1024.8
2017-01-05T12:55:39.425Z,1024.76
2017-01-05T12:56:44.617Z,1024.76
2017-01-05T12:57:49.844Z,1024.8
2017-01-05T12:58:54.037Z,1024.8
2017-01-05T13:00:00.198Z,1024.8
2017-01-05T13:01:04.552Z,1024.83
2017-01-05T13:02:08.186Z,1024.84
2017-01-05T13:03:13.378Z,1024.83
2017-01-05T13:04:19.541Z,1024.93
2017-01-05T13:05:25.731Z,1024.89
2017-01-05T13:06:31.863Z,1024.92
2017-01-05T13:07:37.067Z,1024.95
2017-01-05T13:08:40.663Z,1024.96
2017-01-05T13:09:46.825Z,1025.01
2017-01-05T13:10:51.013Z,1025.08
2017-01-05T13:11:57.178Z,1025.09
2017-01-05T13:13:02.369Z,1025.1
2017-01-05T13:14:08.548Z,1025.08
2017-01-05T13:15:13.729Z,1025.15
2017-01-05T13:16:18.916Z,1025.11
2017-01-05T13:17:24.115Z,1025.11
2017-01-05T13:18:29.313Z,1025.11